Time;durP1;ratioP1;P1;durP2;ratioP2;P2;SDS_P1;SDS_P2;PMS_P1;PMS_P2;Temp;Humidity;BMP_temperature;BMP_pressure;BME280_temperature;BME280_humidity;BME280_pressure;Samples;Min_cycle;Max_cycle;Signal;HPM_P1;HPM_P2
2020/12/15 00:01:23;;;;;;;26.87;16.50;;;2.00;91.10;;;;;;5062497;28;20194;-80
2020/12/15 00:03:51;;;;;;;29.40;17.97;;;1.90;91.10;;;;;;5053960;28;21081;-82
2020/12/15 00:06:19;;;;;;;22.07;14.90;;;2.00;91.10;;;;;;5065267;28;20201;-83
2020/12/15 00:08:46;;;;;;;23.97;14.90;;;2.00;91.00;;;;;;5060230;28;20203;-83
2020/12/15 00:11:18;;;;;;;22.50;14.87;;;2.00;90.90;;;;;;5057133;28;20399;-82
2020/12/15 00:13:49;;;;;;;24.47;15.47;;;2.20;90.90;;;;;;5054637;28;20205;-83
2020/12/15 00:16:18;;;;;;;26.17;16.43;;;2.00;90.80;;;;;;5060625;28;20194;-82
2020/12/15 00:18:47;;;;;;;23.67;15.07;;;2.00;90.80;;;;;;5061170;28;20288;-84
2020/12/15 00:21:19;;;;;;;22.80;15.00;;;2.20;90.80;;;;;;5082514;28;20556;-81
2020/12/15 00:23:49;;;;;;;23.63;15.33;;;2.00;90.80;;;;;;5060762;28;20237;-82
2020/12/15 00:26:18;;;;;;;22.53;15.13;;;2.00;90.80;;;;;;5054505;28;20406;-82
2020/12/15 00:28:48;;;;;;;27.17;16.10;;;2.00;90.70;;;;;;5056430;28;20215;-83
2020/12/15 00:31:16;;;;;;;25.50;15.40;;;2.00;90.80;;;;;;5050653;28;20258;-81
2020/12/15 00:33:48;;;;;;;23.07;15.77;;;1.90;90.80;;;;;;5057564;28;20201;-82
2020/12/15 00:36:20;;;;;;;25.10;15.83;;;2.00;90.80;;;;;;5059894;28;20569;-81
2020/12/15 00:38:48;;;;;;;27.13;16.23;;;2.00;90.80;;;;;;5058350;28;20267;-83
2020/12/15 00:41:15;;;;;;;29.03;16.67;;;2.00;90.90;;;;;;5055456;28;20787;-81
2020/12/15 00:43:44;;;;;;;28.20;17.27;;;2.00;90.90;;;;;;5049585;28;20214;-81
2020/12/15 00:46:13;;;;;;;29.03;17.70;;;2.00;91.00;;;;;;5048802;28;20563;-83
2020/12/15 00:48:41;;;;;;;26.20;17.03;;;2.00;91.00;;;;;;5054392;28;20823;-81
2020/12/15 00:51:13;;;;;;;25.47;16.07;;;2.00;91.10;;;;;;5053219;28;20201;-81
2020/12/15 00:53:43;;;;;;;27.53;16.87;;;2.00;91.00;;;;;;5063500;28;20202;-82
2020/12/15 00:56:12;;;;;;;28.77;17.37;;;2.00;90.90;;;;;;5060210;28;20296;-82
2020/12/15 00:58:40;;;;;;;27.10;16.33;;;2.00;90.90;;;;;;5084216;28;20214;-82
2020/12/15 01:01:12;;;;;;;26.43;15.97;;;2.00;90.90;;;;;;5079192;28;20193;-82
2020/12/15 01:03:40;;;;;;;25.93;16.40;;;1.90;90.90;;;;;;5065159;28;20469;-82
2020/12/15 01:06:10;;;;;;;26.87;16.73;;;2.10;90.90;;;;;;5063533;28;21043;-82
2020/12/15 01:08:38;;;;;;;29.63;17.73;;;1.90;91.00;;;;;;5053512;28;20620;-81
2020/12/15 01:11:15;;;;;;;28.07;17.10;;;1.90;91.00;;;;;;5047367;28;20272;-83
2020/12/15 01:13:44;;;;;;;30.00;18.00;;;2.00;91.10;;;;;;5049787;28;20274;-82
2020/12/15 01:16:12;;;;;;;31.53;18.03;;;1.90;91.10;;;;;;5050014;28;20209;-82
2020/12/15 01:18:42;;;;;;;29.20;17.50;;;1.90;91.10;;;;;;5070634;28;20198;-83
2020/12/15 01:21:12;;;;;;;28.27;16.63;;;1.90;91.00;;;;;;5058220;28;20267;-82
2020/12/15 01:23:43;;;;;;;27.97;17.63;;;1.90;91.10;;;;;;5052781;28;20222;-83
2020/12/15 01:26:11;;;;;;;26.87;16.70;;;2.00;91.20;;;;;;5052656;28;20625;-84
2020/12/15 01:28:38;;;;;;;28.07;17.57;;;1.90;91.20;;;;;;5064705;28;20209;-83
2020/12/15 01:31:06;;;;;;;29.57;17.70;;;1.90;91.10;;;;;;5043105;28;20204;-83
2020/12/15 01:33:35;;;;;;;30.03;18.63;;;1.90;91.10;;;;;;5063473;28;20532;-82
2020/12/15 01:36:03;;;;;;;31.57;19.10;;;1.90;91.20;;;;;;5064920;28;20684;-81
2020/12/15 01:38:30;;;;;;;29.40;18.83;;;1.90;91.20;;;;;;5057842;28;20947;-81
2020/12/15 01:40:58;;;;;;;29.00;19.13;;;1.90;91.20;;;;;;5067343;28;20189;-81
2020/12/15 01:43:25;;;;;;;29.93;18.27;;;1.90;91.20;;;;;;5047175;28;20996;-82
2020/12/15 01:45:53;;;;;;;29.27;18.40;;;1.90;91.20;;;;;;5047940;28;20200;-81
2020/12/15 01:48:20;;;;;;;30.00;17.80;;;1.90;91.20;;;;;;5050164;28;20220;-82
2020/12/15 01:50:49;;;;;;;25.70;16.57;;;1.90;91.20;;;;;;5044322;28;20636;-83
2020/12/15 01:53:17;;;;;;;27.57;16.60;;;1.90;91.20;;;;;;5056464;28;20201;-82
2020/12/15 01:55:45;;;;;;;28.87;17.20;;;1.90;91.20;;;;;;5044655;28;21090;-81
2020/12/15 01:58:13;;;;;;;28.73;17.00;;;1.90;91.20;;;;;;5050988;28;20233;-81
2020/12/15 02:00:41;;;;;;;26.67;16.93;;;1.90;91.20;;;;;;5050695;28;20193;-83
2020/12/15 02:03:08;;;;;;;29.20;18.40;;;2.00;91.30;;;;;;5055085;28;20313;-79
2020/12/15 02:05:37;;;;;;;26.00;16.67;;;1.90;91.30;;;;;;5060176;28;21026;-83
2020/12/15 02:08:05;;;;;;;29.83;17.83;;;1.80;91.20;;;;;;5062706;28;20564;-80
2020/12/15 02:10:33;;;;;;;31.80;18.97;;;1.80;91.20;;;;;;5047551;28;20475;-82
2020/12/15 02:13:01;;;;;;;28.63;17.70;;;1.80;91.20;;;;;;5061798;28;20201;-80
2020/12/15 02:15:29;;;;;;;27.83;17.47;;;2.00;91.30;;;;;;5063374;28;20209;-83
2020/12/15 02:17:57;;;;;;;29.47;17.77;;;1.80;91.30;;;;;;5046689;28;20209;-82
2020/12/15 02:20:25;;;;;;;28.03;17.53;;;1.80;91.30;;;;;;5050636;28;20212;-80
2020/12/15 02:22:53;;;;;;;29.23;18.10;;;1.80;91.40;;;;;;5059944;28;20227;-82
2020/12/15 02:25:21;;;;;;;27.17;17.40;;;1.80;91.40;;;;;;5080317;28;20205;-79
2020/12/15 02:27:49;;;;;;;25.33;16.30;;;1.80;91.40;;;;;;5081535;28;20186;-83
2020/12/15 02:30:16;;;;;;;29.10;17.13;;;1.80;91.40;;;;;;5065898;28;20300;-83
2020/12/15 02:32:44;;;;;;;32.17;18.83;;;1.80;91.40;;;;;;5037267;28;20341;-81
2020/12/15 02:35:12;;;;;;;30.90;18.30;;;1.80;91.40;;;;;;5063413;28;20205;-83
2020/12/15 02:37:40;;;;;;;29.63;18.10;;;1.80;91.50;;;;;;5075981;28;20183;-82
2020/12/15 02:40:09;;;;;;;30.30;18.10;;;1.70;91.50;;;;;;5045096;28;21559;-82
2020/12/15 02:42:37;;;;;;;32.10;18.30;;;1.70;91.50;;;;;;5074459;28;20223;-82
2020/12/15 02:45:06;;;;;;;31.93;17.93;;;1.80;91.60;;;;;;5063670;28;20204;-82
2020/12/15 02:47:33;;;;;;;28.27;17.73;;;1.70;91.60;;;;;;5058501;28;20197;-80
2020/12/15 02:50:01;;;;;;;32.83;20.20;;;1.70;91.60;;;;;;5058005;28;20230;-82
2020/12/15 02:52:29;;;;;;;30.33;18.90;;;1.70;91.70;;;;;;5044841;28;20336;-82
2020/12/15 02:54:57;;;;;;;29.17;18.63;;;1.70;91.70;;;;;;5057746;28;20217;-81
2020/12/15 02:57:25;;;;;;;28.27;16.63;;;1.70;91.70;;;;;;5053802;28;20892;-82
2020/12/15 02:59:53;;;;;;;29.53;16.27;;;1.70;91.70;;;;;;5050032;28;20193;-82
2020/12/15 03:02:21;;;;;;;28.47;17.47;;;1.60;91.70;;;;;;5065363;28;20190;-83
2020/12/15 03:04:48;;;;;;;32.10;18.40;;;1.60;91.70;;;;;;5051562;28;20222;-81
2020/12/15 03:07:16;;;;;;;27.83;17.27;;;1.70;91.90;;;;;;5049090;28;20293;-82
2020/12/15 03:09:44;;;;;;;27.77;17.80;;;1.50;91.80;;;;;;5045200;28;20195;-81
2020/12/15 03:12:20;;;;;;;26.60;15.93;;;1.50;91.90;;;;;;5048813;28;20213;-82
2020/12/15 03:14:49;;;;;;;30.30;16.40;;;1.50;91.90;;;;;;5055432;28;20670;-82
2020/12/15 03:17:17;;;;;;;31.67;17.60;;;1.50;91.90;;;;;;5053542;28;20807;-82
2020/12/15 03:19:45;;;;;;;28.20;16.30;;;1.50;91.90;;;;;;5059096;28;20569;-82
2020/12/15 03:22:13;;;;;;;28.33;17.30;;;1.50;91.90;;;;;;5079700;28;20204;-81
2020/12/15 03:24:43;;;;;;;33.97;18.33;;;1.40;92.00;;;;;;5053174;28;20397;-81
2020/12/15 03:27:10;;;;;;;30.83;17.40;;;1.40;92.00;;;;;;5059819;28;20205;-80
2020/12/15 03:29:39;;;;;;;31.27;17.83;;;1.40;92.00;;;;;;5056194;28;20205;-81
2020/12/15 03:32:08;;;;;;;32.03;19.70;;;1.40;92.00;;;;;;5048767;28;20584;-82
2020/12/15 03:34:36;;;;;;;32.07;17.83;;;1.40;92.00;;;;;;5051916;28;20193;-82
2020/12/15 03:37:04;;;;;;;32.13;18.30;;;1.40;92.00;;;;;;5060439;28;20758;-83
2020/12/15 03:39:31;;;;;;;33.77;19.03;;;1.40;92.00;;;;;;5052314;28;20197;-81
2020/12/15 03:41:59;;;;;;;29.23;15.73;;;1.40;92.00;;;;;;5061152;28;20197;-81
2020/12/15 03:44:27;;;;;;;31.00;18.43;;;1.30;91.90;;;;;;5054848;28;20225;-81
2020/12/15 03:46:55;;;;;;;33.53;18.67;;;1.30;91.90;;;;;;5052126;28;20240;-82
2020/12/15 03:49:24;;;;;;;29.90;16.80;;;1.30;91.90;;;;;;5070962;28;20201;-80
2020/12/15 03:51:51;;;;;;;31.03;18.03;;;1.20;91.80;;;;;;5068233;28;20194;-81
2020/12/15 03:54:19;;;;;;;27.40;16.30;;;1.40;91.90;;;;;;5072135;28;20206;-81
2020/12/15 03:56:47;;;;;;;30.07;17.13;;;1.10;91.70;;;;;;5052550;28;20280;-84
2020/12/15 03:59:14;;;;;;;34.00;18.00;;;1.10;91.80;;;;;;5060663;28;20208;-81
2020/12/15 04:01:42;;;;;;;34.33;17.83;;;1.10;91.80;;;;;;5040426;28;20212;-82
2020/12/15 04:04:10;;;;;;;32.97;18.63;;;1.20;91.90;;;;;;5040071;28;20725;-81
2020/12/15 04:06:38;;;;;;;35.53;19.00;;;1.10;91.90;;;;;;5037542;28;20205;-82
2020/12/15 04:09:06;;;;;;;35.57;19.43;;;1.10;91.90;;;;;;5065331;28;20430;-81
2020/12/15 04:11:33;;;;;;;33.23;18.43;;;1.10;92.00;;;;;;5053068;28;20613;-82
2020/12/15 04:14:01;;;;;;;39.87;19.30;;;1.10;92.10;;;;;;5054886;28;20283;-82
2020/12/15 04:16:29;;;;;;;32.10;18.40;;;1.10;92.10;;;;;;5073503;28;20201;-82
2020/12/15 04:19:00;;;;;;;35.27;18.90;;;1.10;92.10;;;;;;5065782;28;20269;-82
2020/12/15 04:21:28;;;;;;;36.13;19.63;;;1.10;92.10;;;;;;5079882;28;20204;-84
2020/12/15 04:23:57;;;;;;;37.03;20.10;;;1.10;92.10;;;;;;5072838;28;20225;-79
2020/12/15 04:26:25;;;;;;;45.63;20.83;;;1.20;92.20;;;;;;5073068;28;20601;-81
2020/12/15 04:28:52;;;;;;;42.23;21.33;;;1.20;92.20;;;;;;5079011;28;20208;-81
2020/12/15 04:31:22;;;;;;;41.43;21.30;;;1.20;92.20;;;;;;5070310;28;20276;-81
2020/12/15 04:33:50;;;;;;;43.90;21.47;;;1.20;92.20;;;;;;5073255;28;20253;-82
2020/12/15 04:36:18;;;;;;;39.47;21.90;;;1.20;92.30;;;;;;5072737;28;20209;-82
2020/12/15 04:38:45;;;;;;;39.73;22.23;;;1.20;92.30;;;;;;5059087;28;20208;-83
2020/12/15 04:41:14;;;;;;;45.20;21.77;;;1.20;92.30;;;;;;5053024;28;20361;-82
2020/12/15 04:43:42;;;;;;;42.73;22.57;;;1.20;92.30;;;;;;5072717;28;20308;-83
2020/12/15 04:46:11;;;;;;;42.47;22.03;;;1.20;92.30;;;;;;5077364;28;20190;-82
2020/12/15 04:48:48;;;;;;;42.43;21.90;;;1.40;92.40;;;;;;5085001;28;20251;-82
2020/12/15 04:51:18;;;;;;;42.13;21.90;;;1.20;92.40;;;;;;5077109;28;20296;-81
2020/12/15 04:53:48;;;;;;;45.17;21.60;;;1.20;92.40;;;;;;5066258;28;20194;-83
2020/12/15 04:56:27;;;;;;;41.43;22.60;;;1.20;92.40;;;;;;5071052;28;20197;-84
2020/12/15 04:58:57;;;;;;;41.60;21.23;;;1.20;92.40;;;;;;5073633;28;20205;-84
2020/12/15 05:01:25;;;;;;;39.10;21.70;;;1.20;92.40;;;;;;5075468;28;20476;-82
2020/12/15 05:03:54;;;;;;;41.77;19.63;;;1.10;92.40;;;;;;5070624;28;20225;-82
2020/12/15 05:06:27;;;;;;;42.60;20.43;;;1.10;92.40;;;;;;5059422;28;20259;-81
2020/12/15 05:08:55;;;;;;;41.37;19.73;;;1.10;92.40;;;;;;5058164;28;20459;-82
2020/12/15 05:11:24;;;;;;;38.43;20.40;;;1.10;92.40;;;;;;5050122;28;20206;-82
2020/12/15 05:13:51;;;;;;;43.03;21.30;;;1.10;92.40;;;;;;5051757;28;20309;-82
2020/12/15 05:16:19;;;;;;;38.70;20.20;;;1.10;92.40;;;;;;5045641;28;20213;-82
2020/12/15 05:18:47;;;;;;;40.23;21.33;;;1.10;92.40;;;;;;5069538;28;20203;-81
2020/12/15 05:21:16;;;;;;;40.97;21.97;;;1.10;92.40;;;;;;5074608;28;20211;-81
2020/12/15 05:23:50;;;;;;;39.17;21.77;;;1.10;92.40;;;;;;5068507;28;20224;-82
2020/12/15 05:26:26;;;;;;;40.70;21.43;;;1.10;92.50;;;;;;5055000;28;20320;-82
2020/12/15 05:29:04;;;;;;;39.77;21.57;;;1.10;92.50;;;;;;5048928;28;20236;-82
2020/12/15 05:31:33;;;;;;;41.80;22.13;;;1.10;92.50;;;;;;5054655;28;20194;-82
2020/12/15 05:34:02;;;;;;;40.20;22.93;;;1.20;92.50;;;;;;5051384;28;20740;-82
2020/12/15 05:36:30;;;;;;;42.83;22.43;;;1.20;92.50;;;;;;5054780;28;21117;-84
2020/12/15 05:39:03;;;;;;;39.77;21.37;;;1.20;92.40;;;;;;5075639;28;20201;-81
2020/12/15 05:41:32;;;;;;;46.67;23.33;;;1.10;92.40;;;;;;5068183;28;20416;-81
2020/12/15 05:44:01;;;;;;;43.43;22.93;;;1.10;92.40;;;;;;5072534;28;20241;-81
2020/12/15 05:46:31;;;;;;;46.90;23.40;;;1.20;92.40;;;;;;5075939;28;20202;-81
2020/12/15 05:49:04;;;;;;;47.00;23.20;;;1.10;92.40;;;;;;5067305;28;20684;-81
2020/12/15 05:51:41;;;;;;;42.67;23.03;;;1.10;92.40;;;;;;5068840;28;20208;-81
2020/12/15 05:54:10;;;;;;;41.83;23.57;;;1.10;92.40;;;;;;5071273;28;20208;-83
2020/12/15 05:56:40;;;;;;;49.80;24.60;;;1.10;92.40;;;;;;5079949;28;20392;-82
2020/12/15 05:59:20;;;;;;;46.00;24.50;;;1.10;92.40;;;;;;5074290;28;20201;-82
2020/12/15 06:01:50;;;;;;;46.33;23.50;;;1.10;92.40;;;;;;5055937;28;20974;-81
2020/12/15 06:04:18;;;;;;;41.40;22.17;;;1.00;92.40;;;;;;5052326;28;20433;-83
2020/12/15 06:06:46;;;;;;;42.83;21.53;;;1.20;92.40;;;;;;5066668;28;20190;-83
2020/12/15 06:09:16;;;;;;;42.70;21.67;;;1.00;92.30;;;;;;5076759;28;20216;-85
2020/12/15 06:11:46;;;;;;;43.57;22.80;;;1.00;92.30;;;;;;5059266;28;20193;-82
2020/12/15 06:14:14;;;;;;;44.53;22.90;;;1.00;92.40;;;;;;5062145;28;20189;-82
2020/12/15 06:16:45;;;;;;;44.73;23.30;;;1.00;92.40;;;;;;5074517;28;20296;-82
2020/12/15 06:19:26;;;;;;;44.60;23.07;;;0.90;92.40;;;;;;5072617;28;20578;-80
2020/12/15 06:21:56;;;;;;;43.83;22.10;;;0.90;92.40;;;;;;5075452;28;20197;-83
2020/12/15 06:24:26;;;;;;;48.47;24.67;;;0.90;92.40;;;;;;5058247;28;20217;-85
2020/12/15 06:26:59;;;;;;;49.87;25.43;;;0.90;92.50;;;;;;5081914;28;20178;-83
2020/12/15 06:29:29;;;;;;;50.83;26.80;;;0.90;92.50;;;;;;5077407;28;20182;-83
2020/12/15 06:31:59;;;;;;;50.73;27.00;;;1.00;92.60;;;;;;5078101;28;20251;-81
2020/12/15 06:34:28;;;;;;;56.20;27.70;;;1.00;92.60;;;;;;5080530;28;20202;-81
2020/12/15 06:36:57;;;;;;;52.47;27.10;;;1.00;92.60;;;;;;5079644;28;20185;-81
2020/12/15 06:39:26;;;;;;;54.93;26.83;;;1.00;92.60;;;;;;5078212;28;20207;-83
2020/12/15 06:41:59;;;;;;;52.07;25.43;;;1.00;92.60;;;;;;5052809;28;20214;-82
2020/12/15 06:44:31;;;;;;;49.37;23.77;;;1.00;92.60;;;;;;5063259;28;20233;-82
2020/12/15 06:47:01;;;;;;;48.40;25.03;;;1.00;92.50;;;;;;5082166;28;20249;-82
2020/12/15 06:49:31;;;;;;;51.17;25.97;;;1.00;92.50;;;;;;5054757;28;20212;-81
2020/12/15 06:52:00;;;;;;;52.70;26.63;;;1.00;92.60;;;;;;5081522;28;20185;-81
2020/12/15 06:54:29;;;;;;;53.37;28.03;;;1.00;92.60;;;;;;5064862;28;20205;-82
2020/12/15 06:57:08;;;;;;;51.00;26.83;;;1.10;92.60;;;;;;5077723;28;20201;-81
2020/12/15 06:59:36;;;;;;;49.53;25.77;;;1.00;92.60;;;;;;5079018;28;20184;-79
2020/12/15 07:02:09;;;;;;;49.70;27.00;;;1.00;92.60;;;;;;5074444;28;20209;-80
2020/12/15 07:04:45;;;;;;;55.53;28.40;;;1.10;92.60;;;;;;5076278;28;20211;-82
2020/12/15 07:07:15;;;;;;;55.87;29.20;;;1.10;92.60;;;;;;5077663;28;20332;-81
2020/12/15 07:09:43;;;;;;;57.97;30.00;;;1.10;92.60;;;;;;5078457;28;20186;-82
2020/12/15 07:12:14;;;;;;;56.73;29.67;;;1.10;92.70;;;;;;5065143;28;20193;-81
2020/12/15 07:14:44;;;;;;;59.70;28.50;;;1.10;92.60;;;;;;5072985;28;20201;-81
2020/12/15 07:17:15;;;;;;;52.80;25.80;;;1.20;92.70;;;;;;5058480;28;20217;-82
2020/12/15 07:19:42;;;;;;;50.53;25.63;;;1.10;92.60;;;;;;5063288;28;20193;-83
2020/12/15 07:22:10;;;;;;;48.57;24.93;;;1.10;92.50;;;;;;5074633;28;20177;-80
2020/12/15 07:24:39;;;;;;;48.30;24.43;;;1.10;92.60;;;;;;5047873;28;20236;-81
2020/12/15 07:27:07;;;;;;;47.13;25.03;;;1.00;92.60;;;;;;5041811;28;20452;-81
2020/12/15 07:29:36;;;;;;;56.40;25.87;;;1.00;92.60;;;;;;5052831;28;20558;-83
2020/12/15 07:32:04;;;;;;;54.03;25.80;;;1.00;92.60;;;;;;5048848;28;20750;-79
2020/12/15 07:34:32;;;;;;;48.73;23.87;;;1.00;92.70;;;;;;5059509;28;20206;-83
2020/12/15 07:37:00;;;;;;;54.03;25.37;;;1.00;92.70;;;;;;5047551;28;20919;-82
2020/12/15 07:39:28;;;;;;;51.33;24.87;;;1.00;92.70;;;;;;5050916;28;20204;-83
2020/12/15 07:42:01;;;;;;;53.33;24.17;;;1.00;92.70;;;;;;5053712;28;20490;-83
2020/12/15 07:44:46;;;;;;;54.43;25.77;;;1.00;92.70;;;;;;5046433;28;20286;-83
2020/12/15 07:47:16;;;;;;;57.63;26.37;;;1.10;92.70;;;;;;5068615;28;20221;-82
2020/12/15 07:49:52;;;;;;;55.27;26.13;;;0.90;92.70;;;;;;5062903;28;20744;-83
2020/12/15 07:52:31;;;;;;;57.30;25.20;;;1.00;92.80;;;;;;5053958;28;20455;-83
2020/12/15 07:55:04;;;;;;;55.97;25.37;;;1.00;92.80;;;;;;5040439;28;20558;-82
2020/12/15 07:57:33;;;;;;;55.10;26.70;;;1.00;92.80;;;;;;5046387;28;20276;-83
2020/12/15 08:00:08;;;;;;;56.13;26.43;;;1.00;92.80;;;;;;5056956;28;20529;-83
2020/12/15 08:02:36;;;;;;;52.17;25.30;;;1.10;92.80;;;;;;5048231;28;20216;-83
2020/12/15 08:05:11;;;;;;;51.10;25.03;;;1.10;92.80;;;;;;5052501;28;20229;-82
2020/12/15 08:07:42;;;;;;;53.63;25.23;;;1.10;92.80;;;;;;5060253;28;20270;-83
2020/12/15 08:10:11;;;;;;;49.97;24.90;;;1.10;92.80;;;;;;5073810;28;20256;-85
2020/12/15 08:12:41;;;;;;;55.87;27.10;;;1.10;92.80;;;;;;5076366;28;20384;-83
2020/12/15 08:15:14;;;;;;;48.97;22.27;;;1.20;92.80;;;;;;5070865;28;20221;-84
2020/12/15 08:17:46;;;;;;;53.83;26.03;;;1.10;92.80;;;;;;5066221;28;20259;-83
2020/12/15 08:20:17;;;;;;;53.83;24.93;;;1.10;92.80;;;;;;5065605;28;20205;-84
2020/12/15 08:22:50;;;;;;;54.20;25.80;;;1.20;92.80;;;;;;5057754;28;20205;-81
2020/12/15 08:25:18;;;;;;;58.63;27.53;;;1.20;92.80;;;;;;5069552;28;20217;-83
2020/12/15 08:27:51;;;;;;;49.53;24.10;;;1.20;92.90;;;;;;5054170;28;20198;-85
2020/12/15 08:30:21;;;;;;;56.13;26.43;;;1.20;92.90;;;;;;5070774;28;20205;-84
2020/12/15 08:32:51;;;;;;;55.63;26.13;;;1.30;92.90;;;;;;5057654;28;20468;-84
2020/12/15 08:35:23;;;;;;;56.47;26.60;;;1.30;92.90;;;;;;5035360;28;20221;-83
2020/12/15 08:37:58;;;;;;;50.73;25.33;;;1.30;92.90;;;;;;5045557;28;20201;-84
2020/12/15 08:40:27;;;;;;;56.37;26.80;;;1.30;92.90;;;;;;5054802;28;20202;-83
2020/12/15 08:42:58;;;;;;;57.03;27.10;;;1.30;92.90;;;;;;5061770;28;20201;-83
2020/12/15 08:45:28;;;;;;;56.67;27.20;;;1.30;92.90;;;;;;5056487;28;20235;-84
2020/12/15 08:47:59;;;;;;;60.27;26.90;;;1.40;92.90;;;;;;5051147;28;20197;-85
2020/12/15 08:50:29;;;;;;;58.60;27.10;;;1.40;92.90;;;;;;5037414;28;20205;-84
2020/12/15 08:53:15;;;;;;;59.50;27.60;;;1.60;92.90;;;;;;5061948;28;20581;-81
2020/12/15 08:55:45;;;;;;;57.83;27.60;;;1.40;92.90;;;;;;5059783;28;20267;-83
2020/12/15 08:58:15;;;;;;;57.20;26.07;;;1.40;92.90;;;;;;5055615;28;20238;-84
2020/12/15 09:00:51;;;;;;;56.90;27.23;;;1.50;92.90;;;;;;5039995;28;20279;-83
2020/12/15 09:03:20;;;;;;;59.27;26.67;;;1.50;92.90;;;;;;5056159;28;20331;-84
2020/12/15 09:05:51;;;;;;;59.83;27.07;;;1.40;92.80;;;;;;5047352;28;20296;-83
2020/12/15 09:08:23;;;;;;;60.53;28.00;;;1.40;92.80;;;;;;5050512;28;20552;-85
2020/12/15 09:10:56;;;;;;;59.97;26.73;;;1.50;92.90;;;;;;5049043;28;20630;-83
2020/12/15 09:13:24;;;;;;;59.63;28.53;;;1.50;92.90;;;;;;5056686;28;20291;-82
2020/12/15 09:16:00;;;;;;;55.87;25.93;;;1.50;92.90;;;;;;5031545;28;20232;-84
2020/12/15 09:18:32;;;;;;;58.67;26.90;;;1.50;92.90;;;;;;5055223;28;20663;-84
2020/12/15 09:21:09;;;;;;;58.03;27.27;;;1.50;92.90;;;;;;5056939;28;20939;-82
2020/12/15 09:23:38;;;;;;;56.87;26.53;;;1.60;92.90;;;;;;5053825;28;20201;-82
2020/12/15 09:26:06;;;;;;;54.33;26.27;;;1.60;92.90;;;;;;5048685;28;20228;-83
2020/12/15 09:28:33;;;;;;;56.13;26.03;;;1.60;92.90;;;;;;5044521;28;20399;-83
2020/12/15 09:31:02;;;;;;;60.67;26.67;;;1.60;92.90;;;;;;5032075;28;20336;-81
2020/12/15 09:33:30;;;;;;;61.60;27.80;;;1.60;92.90;;;;;;5046007;28;20202;-81
2020/12/15 09:35:58;;;;;;;58.53;27.07;;;1.60;92.90;;;;;;5049992;28;20216;-82
2020/12/15 09:38:26;;;;;;;57.53;25.53;;;1.70;92.90;;;;;;5063014;28;20370;-81
2020/12/15 09:40:53;;;;;;;62.27;29.30;;;1.70;92.90;;;;;;5070597;28;20277;-82
2020/12/15 09:43:21;;;;;;;57.17;28.17;;;1.70;92.90;;;;;;5065834;28;20205;-82
2020/12/15 09:45:50;;;;;;;60.90;28.10;;;1.70;92.90;;;;;;5057008;28;20559;-85
2020/12/15 09:48:21;;;;;;;53.10;26.43;;;1.70;92.80;;;;;;5050435;28;20250;-80
2020/12/15 09:50:52;;;;;;;54.37;27.20;;;1.70;92.80;;;;;;5051802;28;20212;-82
2020/12/15 09:53:21;;;;;;;54.30;26.33;;;1.70;92.90;;;;;;5050883;28;20201;-80
2020/12/15 09:55:48;;;;;;;58.87;27.07;;;1.70;92.80;;;;;;5059848;28;20194;-81
2020/12/15 09:58:16;;;;;;;53.73;26.93;;;1.80;92.90;;;;;;5053249;28;20205;-81
2020/12/15 10:00:52;;;;;;;58.17;26.20;;;1.80;92.90;;;;;;5066340;28;20212;-81
2020/12/15 10:03:21;;;;;;;54.67;26.17;;;1.80;92.80;;;;;;5061520;28;20174;-80
2020/12/15 10:05:48;;;;;;;58.63;29.03;;;1.90;92.90;;;;;;5063561;28;20220;-81
2020/12/15 10:08:16;;;;;;;57.80;27.50;;;2.00;92.90;;;;;;5065912;28;20181;-82
2020/12/15 10:10:44;;;;;;;55.13;27.00;;;1.80;92.80;;;;;;5072572;28;20177;-80
2020/12/15 10:13:11;;;;;;;48.10;24.87;;;1.80;92.70;;;;;;5074471;28;20519;-83
2020/12/15 10:15:40;;;;;;;47.00;24.90;;;2.00;92.70;;;;;;5068919;28;20674;-81
2020/12/15 10:18:09;;;;;;;50.07;24.17;;;1.90;92.60;;;;;;5055111;28;20207;-81
2020/12/15 10:20:38;;;;;;;50.00;25.83;;;1.90;92.60;;;;;;5066632;28;20631;-81
2020/12/15 10:23:06;;;;;;;49.40;24.13;;;1.90;92.60;;;;;;5067687;28;20185;-80
2020/12/15 10:25:34;;;;;;;47.07;25.47;;;1.90;92.70;;;;;;5066959;28;20285;-82
2020/12/15 10:28:02;;;;;;;44.73;24.03;;;1.80;92.60;;;;;;5058786;28;20203;-81
2020/12/15 10:30:29;;;;;;;47.03;24.00;;;1.90;92.70;;;;;;5046093;28;20216;-82
2020/12/15 10:32:58;;;;;;;49.10;25.53;;;1.90;92.70;;;;;;5067363;28;20502;-82
2020/12/15 10:35:25;;;;;;;45.33;23.13;;;1.80;92.60;;;;;;5058112;28;20624;-81
2020/12/15 10:37:56;;;;;;;50.67;25.83;;;1.90;92.70;;;;;;5054812;28;20197;-80
2020/12/15 10:40:24;;;;;;;48.33;25.57;;;1.90;92.60;;;;;;5050003;28;20205;-81
2020/12/15 10:42:52;;;;;;;51.63;26.47;;;1.90;92.60;;;;;;5076017;28;20224;-81
2020/12/15 10:45:21;;;;;;;46.23;23.33;;;1.90;92.70;;;;;;5057459;28;20233;-83
2020/12/15 10:47:51;;;;;;;48.70;24.43;;;1.90;92.70;;;;;;5067889;28;20205;-80
2020/12/15 10:50:23;;;;;;;50.63;25.37;;;1.90;92.70;;;;;;5047738;28;20209;-82
2020/12/15 10:52:50;;;;;;;49.73;24.27;;;2.00;92.70;;;;;;5063655;28;20193;-81
2020/12/15 10:55:19;;;;;;;50.93;25.20;;;1.90;92.60;;;;;;5068791;28;20265;-83
2020/12/15 10:57:47;;;;;;;45.70;25.73;;;2.00;92.60;;;;;;5059412;28;21423;-82
2020/12/15 11:00:15;;;;;;;49.70;25.27;;;1.90;92.60;;;;;;5059952;28;20206;-82
2020/12/15 11:02:43;;;;;;;47.23;24.17;;;2.00;92.60;;;;;;5067974;28;20432;-81
2020/12/15 11:05:12;;;;;;;49.23;25.97;;;2.10;92.70;;;;;;5072672;28;20225;-81
2020/12/15 11:07:40;;;;;;;47.43;25.40;;;2.00;92.70;;;;;;5069676;28;20194;-80
2020/12/15 11:10:08;;;;;;;51.00;26.07;;;2.10;92.70;;;;;;5081061;28;20197;-82
2020/12/15 11:12:37;;;;;;;45.30;23.93;;;2.10;92.60;;;;;;5061422;28;20210;-83
2020/12/15 11:15:06;;;;;;;47.63;23.97;;;2.10;92.60;;;;;;5068670;28;20555;-80
2020/12/15 11:17:34;;;;;;;49.90;25.73;;;2.00;92.50;;;;;;5037239;28;20440;-83
2020/12/15 11:20:04;;;;;;;49.10;26.30;;;2.10;92.60;;;;;;5060341;28;20236;-82
2020/12/15 11:22:32;;;;;;;55.20;25.97;;;2.10;92.60;;;;;;5047544;28;20424;-84
2020/12/15 11:25:00;;;;;;;53.83;26.60;;;2.10;92.60;;;;;;5057937;28;20447;-82
2020/12/15 11:27:28;;;;;;;52.83;27.07;;;2.20;92.60;;;;;;5054097;28;20524;-82
2020/12/15 11:29:57;;;;;;;46.83;25.30;;;2.20;92.60;;;;;;5039485;28;20205;-82
2020/12/15 11:32:31;;;;;;;52.30;26.73;;;2.20;92.60;;;;;;5065586;28;20192;-81
2020/12/15 11:34:59;;;;;;;52.53;26.30;;;2.30;92.50;;;;;;5065785;28;20330;-82
2020/12/15 11:37:29;;;;;;;52.37;26.20;;;2.20;92.50;;;;;;5066266;28;20224;-81
2020/12/15 11:39:57;;;;;;;51.57;26.03;;;2.20;92.60;;;;;;5067872;28;20439;-81
2020/12/15 11:42:24;;;;;;;49.07;25.03;;;2.20;92.60;;;;;;5078567;28;20209;-79
2020/12/15 11:44:57;;;;;;;46.20;23.27;;;2.20;92.60;;;;;;5076078;28;20253;-81
2020/12/15 11:47:25;;;;;;;45.13;23.63;;;2.20;92.50;;;;;;5070188;28;20217;-81
2020/12/15 11:49:52;;;;;;;47.57;25.17;;;2.40;92.60;;;;;;5059596;28;20290;-80
2020/12/15 11:52:42;;;;;;;49.40;24.33;;;2.20;92.50;;;;;;5056287;28;20351;-83
2020/12/15 11:55:10;;;;;;;49.97;25.90;;;2.20;92.60;;;;;;5067573;28;20197;-81
2020/12/15 11:57:38;;;;;;;49.00;24.93;;;2.10;92.60;;;;;;5072358;28;20251;-81
2020/12/15 12:00:08;;;;;;;56.73;27.53;;;2.20;92.60;;;;;;5063492;28;20277;-82
2020/12/15 12:02:38;;;;;;;51.77;26.73;;;2.20;92.60;;;;;;5056419;28;20533;-80
2020/12/15 12:05:06;;;;;;;49.17;24.30;;;2.20;92.70;;;;;;5053073;28;20748;-82
2020/12/15 12:07:34;;;;;;;46.83;25.33;;;2.30;92.70;;;;;;5053205;28;20205;-80
2020/12/15 12:10:02;;;;;;;47.37;24.30;;;2.30;92.70;;;;;;5050152;28;20557;-81
2020/12/15 12:12:30;;;;;;;48.23;25.40;;;2.20;92.60;;;;;;5048849;28;20206;-83
2020/12/15 12:14:58;;;;;;;47.20;24.40;;;2.20;92.60;;;;;;5052073;28;20205;-82
2020/12/15 12:17:28;;;;;;;51.63;25.13;;;2.20;92.60;;;;;;5060870;28;20189;-81
2020/12/15 12:19:56;;;;;;;51.63;25.50;;;2.20;92.60;;;;;;5048361;28;20200;-83
2020/12/15 12:22:28;;;;;;;51.70;25.70;;;2.20;92.70;;;;;;5060239;28;20665;-81
2020/12/15 12:24:58;;;;;;;48.43;25.30;;;2.20;92.60;;;;;;5036952;28;20871;-85
2020/12/15 12:27:26;;;;;;;46.87;24.57;;;2.20;92.70;;;;;;5056845;28;20193;-81
2020/12/15 12:29:54;;;;;;;48.80;25.10;;;2.20;92.70;;;;;;5050601;28;20285;-83
2020/12/15 12:32:22;;;;;;;43.30;22.87;;;2.10;92.70;;;;;;5057481;28;20221;-82
2020/12/15 12:34:54;;;;;;;43.23;22.77;;;2.20;92.70;;;;;;5071391;28;20217;-81
2020/12/15 12:37:22;;;;;;;48.63;24.63;;;2.20;92.60;;;;;;5066562;28;20217;-83
2020/12/15 12:39:50;;;;;;;43.73;22.40;;;2.20;92.60;;;;;;5054316;28;20232;-80
2020/12/15 12:42:19;;;;;;;54.03;25.37;;;2.20;92.60;;;;;;5051397;28;20221;-84
2020/12/15 12:44:46;;;;;;;51.20;26.10;;;2.40;92.70;;;;;;5052251;28;20240;-83
2020/12/15 12:47:14;;;;;;;51.00;25.70;;;2.20;92.70;;;;;;5053221;28;20736;-83